sensor_id;sensor_type;location;lat;lon;timestamp;P1;durP1;ratioP1;P2;durP2;ratioP2
15287;SDS011;7745;48.708;9.026;2023-04-05T00:01:11;5.70;;;4.93;;
15287;SDS011;7745;48.708;9.026;2023-04-05T00:03:38;6.80;;;5.73;;
15287;SDS011;7745;48.708;9.026;2023-04-05T00:06:06;8.87;;;5.10;;
15287;SDS011;7745;48.708;9.026;2023-04-05T00:08:37;8.20;;;5.40;;
15287;SDS011;7745;48.708;9.026;2023-04-05T00:11:03;6.90;;;5.33;;
15287;SDS011;7745;48.708;9.026;2023-04-05T00:13:30;5.67;;;5.00;;
15287;SDS011;7745;48.708;9.026;2023-04-05T00:15:57;6.87;;;5.47;;
15287;SDS011;7745;48.708;9.026;2023-04-05T00:18:26;9.33;;;5.87;;
15287;SDS011;7745;48.708;9.026;2023-04-05T00:20:58;7.43;;;5.40;;
15287;SDS011;7745;48.708;9.026;2023-04-05T00:23:25;8.93;;;5.57;;
15287;SDS011;7745;48.708;9.026;2023-04-05T00:25:52;9.67;;;5.80;;
15287;SDS011;7745;48.708;9.026;2023-04-05T00:28:18;7.63;;;5.50;;
15287;SDS011;7745;48.708;9.026;2023-04-05T00:30:45;7.97;;;5.93;;
15287;SDS011;7745;48.708;9.026;2023-04-05T00:33:12;15.17;;;6.23;;
15287;SDS011;7745;48.708;9.026;2023-04-05T00:35:40;6.40;;;5.60;;
15287;SDS011;7745;48.708;9.026;2023-04-05T00:38:07;6.60;;;5.57;;
15287;SDS011;7745;48.708;9.026;2023-04-05T00:40:34;7.87;;;5.50;;
15287;SDS011;7745;48.708;9.026;2023-04-05T00:43:01;6.37;;;5.70;;
15287;SDS011;7745;48.708;9.026;2023-04-05T00:45:28;7.10;;;6.27;;
15287;SDS011;7745;48.708;9.026;2023-04-05T00:47:55;8.03;;;5.50;;
15287;SDS011;7745;48.708;9.026;2023-04-05T00:50:22;8.50;;;5.77;;
15287;SDS011;7745;48.708;9.026;2023-04-05T00:52:50;6.67;;;5.37;;
15287;SDS011;7745;48.708;9.026;2023-04-05T00:55:17;8.97;;;5.60;;
15287;SDS011;7745;48.708;9.026;2023-04-05T00:57:44;7.70;;;5.30;;
15287;SDS011;7745;48.708;9.026;2023-04-05T01:00:14;9.57;;;5.20;;
15287;SDS011;7745;48.708;9.026;2023-04-05T01:02:43;8.33;;;5.73;;
15287;SDS011;7745;48.708;9.026;2023-04-05T01:05:17;8.03;;;5.73;;
15287;SDS011;7745;48.708;9.026;2023-04-05T01:07:57;8.17;;;6.20;;
15287;SDS011;7745;48.708;9.026;2023-04-05T01:10:34;7.60;;;5.93;;
15287;SDS011;7745;48.708;9.026;2023-04-05T01:13:04;7.47;;;6.00;;
15287;SDS011;7745;48.708;9.026;2023-04-05T01:15:31;11.10;;;5.93;;
15287;SDS011;7745;48.708;9.026;2023-04-05T01:17:58;7.03;;;5.20;;
15287;SDS011;7745;48.708;9.026;2023-04-05T01:20:26;6.93;;;5.90;;
15287;SDS011;7745;48.708;9.026;2023-04-05T01:23:17;8.03;;;5.60;;
15287;SDS011;7745;48.708;9.026;2023-04-05T01:29:20;7.60;;;5.60;;
15287;SDS011;7745;48.708;9.026;2023-04-05T01:32:05;9.03;;;5.53;;
15287;SDS011;7745;48.708;9.026;2023-04-05T01:34:41;7.17;;;5.77;;
15287;SDS011;7745;48.708;9.026;2023-04-05T01:37:13;9.80;;;5.77;;
15287;SDS011;7745;48.708;9.026;2023-04-05T01:39:43;8.40;;;5.97;;
15287;SDS011;7745;48.708;9.026;2023-04-05T01:42:11;7.83;;;5.83;;
15287;SDS011;7745;48.708;9.026;2023-04-05T01:44:40;8.77;;;5.50;;
15287;SDS011;7745;48.708;9.026;2023-04-05T01:47:06;8.77;;;5.40;;
15287;SDS011;7745;48.708;9.026;2023-04-05T01:49:33;9.57;;;6.00;;
15287;SDS011;7745;48.708;9.026;2023-04-05T01:52:00;8.23;;;5.57;;
15287;SDS011;7745;48.708;9.026;2023-04-05T01:54:27;7.13;;;5.53;;
15287;SDS011;7745;48.708;9.026;2023-04-05T01:56:53;6.03;;;5.10;;
15287;SDS011;7745;48.708;9.026;2023-04-05T01:59:20;6.57;;;5.10;;
15287;SDS011;7745;48.708;9.026;2023-04-05T02:01:49;10.17;;;5.47;;
15287;SDS011;7745;48.708;9.026;2023-04-05T02:04:16;7.03;;;5.20;;
15287;SDS011;7745;48.708;9.026;2023-04-05T02:06:43;8.23;;;5.97;;
15287;SDS011;7745;48.708;9.026;2023-04-05T02:09:09;6.83;;;5.27;;
15287;SDS011;7745;48.708;9.026;2023-04-05T02:11:36;7.90;;;5.80;;
15287;SDS011;7745;48.708;9.026;2023-04-05T02:14:03;7.10;;;5.27;;
15287;SDS011;7745;48.708;9.026;2023-04-05T02:16:30;6.97;;;5.37;;
15287;SDS011;7745;48.708;9.026;2023-04-05T02:18:58;7.93;;;5.93;;
15287;SDS011;7745;48.708;9.026;2023-04-05T02:21:25;7.00;;;5.60;;
15287;SDS011;7745;48.708;9.026;2023-04-05T02:23:52;6.60;;;5.90;;
15287;SDS011;7745;48.708;9.026;2023-04-05T02:26:19;6.77;;;5.53;;
15287;SDS011;7745;48.708;9.026;2023-04-05T02:28:46;8.10;;;5.67;;
15287;SDS011;7745;48.708;9.026;2023-04-05T02:31:13;8.53;;;6.07;;
15287;SDS011;7745;48.708;9.026;2023-04-05T02:33:40;8.57;;;6.40;;
15287;SDS011;7745;48.708;9.026;2023-04-05T02:36:10;8.23;;;6.03;;
15287;SDS011;7745;48.708;9.026;2023-04-05T02:38:37;8.27;;;5.97;;
15287;SDS011;7745;48.708;9.026;2023-04-05T02:41:06;10.20;;;5.90;;
15287;SDS011;7745;48.708;9.026;2023-04-05T02:43:35;8.00;;;6.00;;
15287;SDS011;7745;48.708;9.026;2023-04-05T02:46:02;9.50;;;5.80;;
15287;SDS011;7745;48.708;9.026;2023-04-05T02:48:29;8.47;;;6.00;;
15287;SDS011;7745;48.708;9.026;2023-04-05T02:50:56;9.47;;;6.03;;
15287;SDS011;7745;48.708;9.026;2023-04-05T02:53:24;7.30;;;5.83;;
15287;SDS011;7745;48.708;9.026;2023-04-05T02:55:51;9.43;;;6.00;;
15287;SDS011;7745;48.708;9.026;2023-04-05T02:58:18;7.97;;;5.43;;
15287;SDS011;7745;48.708;9.026;2023-04-05T03:00:45;9.97;;;6.43;;
15287;SDS011;7745;48.708;9.026;2023-04-05T03:03:15;8.13;;;6.27;;
15287;SDS011;7745;48.708;9.026;2023-04-05T03:05:43;8.13;;;6.10;;
15287;SDS011;7745;48.708;9.026;2023-04-05T03:08:11;10.53;;;6.47;;
15287;SDS011;7745;48.708;9.026;2023-04-05T03:10:44;7.30;;;5.93;;
15287;SDS011;7745;48.708;9.026;2023-04-05T03:13:12;7.53;;;5.50;;
15287;SDS011;7745;48.708;9.026;2023-04-05T03:15:39;9.57;;;6.77;;
15287;SDS011;7745;48.708;9.026;2023-04-05T03:18:06;9.07;;;6.20;;
15287;SDS011;7745;48.708;9.026;2023-04-05T03:20:33;7.83;;;6.00;;
15287;SDS011;7745;48.708;9.026;2023-04-05T03:23:04;10.43;;;6.37;;
15287;SDS011;7745;48.708;9.026;2023-04-05T03:25:33;9.97;;;6.23;;
15287;SDS011;7745;48.708;9.026;2023-04-05T03:28:02;9.17;;;6.53;;
15287;SDS011;7745;48.708;9.026;2023-04-05T03:30:30;7.17;;;5.80;;
15287;SDS011;7745;48.708;9.026;2023-04-05T03:32:57;9.27;;;6.40;;
15287;SDS011;7745;48.708;9.026;2023-04-05T03:35:25;8.30;;;6.33;;
15287;SDS011;7745;48.708;9.026;2023-04-05T03:37:52;8.47;;;5.87;;
15287;SDS011;7745;48.708;9.026;2023-04-05T03:40:19;7.87;;;6.03;;
15287;SDS011;7745;48.708;9.026;2023-04-05T03:42:48;9.80;;;6.57;;
15287;SDS011;7745;48.708;9.026;2023-04-05T03:45:16;10.07;;;6.17;;
15287;SDS011;7745;48.708;9.026;2023-04-05T03:47:43;9.23;;;6.73;;
15287;SDS011;7745;48.708;9.026;2023-04-05T03:50:10;7.80;;;6.30;;
15287;SDS011;7745;48.708;9.026;2023-04-05T03:52:37;7.67;;;6.30;;
15287;SDS011;7745;48.708;9.026;2023-04-05T03:55:04;10.23;;;6.90;;
15287;SDS011;7745;48.708;9.026;2023-04-05T03:57:32;7.90;;;6.20;;
15287;SDS011;7745;48.708;9.026;2023-04-05T03:59:58;8.33;;;6.03;;
15287;SDS011;7745;48.708;9.026;2023-04-05T04:02:27;8.23;;;6.43;;
15287;SDS011;7745;48.708;9.026;2023-04-05T04:04:53;8.70;;;6.93;;
15287;SDS011;7745;48.708;9.026;2023-04-05T04:07:20;7.23;;;6.07;;
15287;SDS011;7745;48.708;9.026;2023-04-05T04:09:47;8.77;;;7.23;;
15287;SDS011;7745;48.708;9.026;2023-04-05T04:12:14;9.47;;;6.33;;
15287;SDS011;7745;48.708;9.026;2023-04-05T04:14:40;8.37;;;6.47;;
15287;SDS011;7745;48.708;9.026;2023-04-05T04:17:07;12.90;;;7.10;;
15287;SDS011;7745;48.708;9.026;2023-04-05T04:19:35;10.07;;;6.87;;
15287;SDS011;7745;48.708;9.026;2023-04-05T04:22:02;9.47;;;6.30;;
15287;SDS011;7745;48.708;9.026;2023-04-05T04:24:29;9.07;;;6.53;;
15287;SDS011;7745;48.708;9.026;2023-04-05T04:26:56;10.80;;;7.27;;
15287;SDS011;7745;48.708;9.026;2023-04-05T04:29:23;7.87;;;7.07;;
15287;SDS011;7745;48.708;9.026;2023-04-05T04:31:54;8.50;;;7.57;;
15287;SDS011;7745;48.708;9.026;2023-04-05T04:34:21;9.77;;;7.10;;
15287;SDS011;7745;48.708;9.026;2023-04-05T04:36:50;10.63;;;7.00;;
15287;SDS011;7745;48.708;9.026;2023-04-05T04:39:24;8.57;;;6.47;;
15287;SDS011;7745;48.708;9.026;2023-04-05T04:41:55;10.80;;;6.87;;
15287;SDS011;7745;48.708;9.026;2023-04-05T04:44:22;10.10;;;6.27;;
15287;SDS011;7745;48.708;9.026;2023-04-05T04:46:55;7.70;;;6.50;;
15287;SDS011;7745;48.708;9.026;2023-04-05T04:49:22;9.93;;;7.13;;
15287;SDS011;7745;48.708;9.026;2023-04-05T04:51:48;8.23;;;6.00;;
15287;SDS011;7745;48.708;9.026;2023-04-05T04:54:16;7.70;;;5.93;;
15287;SDS011;7745;48.708;9.026;2023-04-05T04:56:45;7.83;;;6.63;;
15287;SDS011;7745;48.708;9.026;2023-04-05T04:59:12;8.70;;;6.90;;
15287;SDS011;7745;48.708;9.026;2023-04-05T05:01:40;8.80;;;6.70;;
15287;SDS011;7745;48.708;9.026;2023-04-05T05:04:09;7.70;;;6.77;;
15287;SDS011;7745;48.708;9.026;2023-04-05T05:06:36;8.03;;;6.10;;
15287;SDS011;7745;48.708;9.026;2023-04-05T05:09:04;7.53;;;6.00;;
15287;SDS011;7745;48.708;9.026;2023-04-05T05:11:31;10.07;;;6.73;;
15287;SDS011;7745;48.708;9.026;2023-04-05T05:13:58;10.97;;;7.07;;
15287;SDS011;7745;48.708;9.026;2023-04-05T05:16:25;10.73;;;6.90;;
15287;SDS011;7745;48.708;9.026;2023-04-05T05:18:52;8.90;;;6.67;;
15287;SDS011;7745;48.708;9.026;2023-04-05T05:21:19;9.47;;;6.67;;
15287;SDS011;7745;48.708;9.026;2023-04-05T05:23:46;8.30;;;7.43;;
15287;SDS011;7745;48.708;9.026;2023-04-05T05:26:14;8.43;;;6.60;;
15287;SDS011;7745;48.708;9.026;2023-04-05T05:28:41;8.50;;;6.40;;
15287;SDS011;7745;48.708;9.026;2023-04-05T05:31:07;10.93;;;7.43;;
15287;SDS011;7745;48.708;9.026;2023-04-05T05:33:34;10.63;;;7.10;;
15287;SDS011;7745;48.708;9.026;2023-04-05T05:36:01;8.97;;;6.90;;
15287;SDS011;7745;48.708;9.026;2023-04-05T05:38:28;12.10;;;7.07;;
15287;SDS011;7745;48.708;9.026;2023-04-05T05:40:55;10.53;;;7.10;;
15287;SDS011;7745;48.708;9.026;2023-04-05T05:43:24;10.33;;;6.67;;
15287;SDS011;7745;48.708;9.026;2023-04-05T05:45:50;11.50;;;7.83;;
15287;SDS011;7745;48.708;9.026;2023-04-05T05:48:17;8.57;;;6.97;;
15287;SDS011;7745;48.708;9.026;2023-04-05T05:50:44;10.87;;;7.20;;
15287;SDS011;7745;48.708;9.026;2023-04-05T05:53:12;11.23;;;7.10;;
15287;SDS011;7745;48.708;9.026;2023-04-05T05:55:40;11.17;;;7.73;;
15287;SDS011;7745;48.708;9.026;2023-04-05T05:58:06;10.70;;;7.20;;
15287;SDS011;7745;48.708;9.026;2023-04-05T06:00:34;8.80;;;7.07;;
15287;SDS011;7745;48.708;9.026;2023-04-05T06:03:02;9.37;;;7.10;;
15287;SDS011;7745;48.708;9.026;2023-04-05T06:05:29;10.60;;;7.37;;
15287;SDS011;7745;48.708;9.026;2023-04-05T06:07:56;11.23;;;7.70;;
15287;SDS011;7745;48.708;9.026;2023-04-05T06:10:23;8.63;;;7.70;;
15287;SDS011;7745;48.708;9.026;2023-04-05T06:12:51;11.57;;;7.67;;
15287;SDS011;7745;48.708;9.026;2023-04-05T06:15:17;10.27;;;7.27;;
15287;SDS011;7745;48.708;9.026;2023-04-05T06:17:45;9.20;;;7.43;;
15287;SDS011;7745;48.708;9.026;2023-04-05T06:20:12;10.73;;;7.30;;
15287;SDS011;7745;48.708;9.026;2023-04-05T06:22:39;12.40;;;7.73;;
15287;SDS011;7745;48.708;9.026;2023-04-05T06:25:07;12.53;;;7.27;;
15287;SDS011;7745;48.708;9.026;2023-04-05T06:27:36;10.27;;;7.30;;
15287;SDS011;7745;48.708;9.026;2023-04-05T06:30:03;10.43;;;7.93;;
15287;SDS011;7745;48.708;9.026;2023-04-05T06:32:30;9.80;;;8.03;;
15287;SDS011;7745;48.708;9.026;2023-04-05T06:34:58;13.37;;;8.70;;
15287;SDS011;7745;48.708;9.026;2023-04-05T06:37:25;14.67;;;8.37;;
15287;SDS011;7745;48.708;9.026;2023-04-05T06:39:52;10.67;;;7.87;;
15287;SDS011;7745;48.708;9.026;2023-04-05T06:42:19;11.37;;;7.93;;
15287;SDS011;7745;48.708;9.026;2023-04-05T06:44:45;11.23;;;7.40;;
15287;SDS011;7745;48.708;9.026;2023-04-05T06:47:12;12.53;;;8.23;;
15287;SDS011;7745;48.708;9.026;2023-04-05T06:49:39;11.90;;;8.03;;
15287;SDS011;7745;48.708;9.026;2023-04-05T06:52:07;11.83;;;7.97;;
15287;SDS011;7745;48.708;9.026;2023-04-05T06:54:36;11.43;;;7.97;;
15287;SDS011;7745;48.708;9.026;2023-04-05T06:57:03;11.10;;;7.33;;
15287;SDS011;7745;48.708;9.026;2023-04-05T06:59:30;10.23;;;7.33;;
15287;SDS011;7745;48.708;9.026;2023-04-05T07:01:57;8.80;;;7.60;;
15287;SDS011;7745;48.708;9.026;2023-04-05T07:04:24;9.40;;;7.27;;
15287;SDS011;7745;48.708;9.026;2023-04-05T07:06:53;12.13;;;7.73;;
15287;SDS011;7745;48.708;9.026;2023-04-05T07:09:22;11.67;;;7.13;;
15287;SDS011;7745;48.708;9.026;2023-04-05T07:11:49;11.20;;;7.07;;
15287;SDS011;7745;48.708;9.026;2023-04-05T07:14:16;11.10;;;7.17;;
15287;SDS011;7745;48.708;9.026;2023-04-05T07:16:43;11.37;;;7.37;;
15287;SDS011;7745;48.708;9.026;2023-04-05T07:19:10;9.97;;;7.47;;
15287;SDS011;7745;48.708;9.026;2023-04-05T07:21:37;10.87;;;7.13;;
15287;SDS011;7745;48.708;9.026;2023-04-05T07:24:07;9.57;;;6.60;;
15287;SDS011;7745;48.708;9.026;2023-04-05T07:26:38;11.00;;;6.90;;
15287;SDS011;7745;48.708;9.026;2023-04-05T07:29:11;9.80;;;6.73;;
15287;SDS011;7745;48.708;9.026;2023-04-05T07:31:44;8.87;;;6.23;;
15287;SDS011;7745;48.708;9.026;2023-04-05T07:36:40;12.20;;;6.90;;
15287;SDS011;7745;48.708;9.026;2023-04-05T07:39:10;7.57;;;5.80;;
15287;SDS011;7745;48.708;9.026;2023-04-05T07:41:39;10.70;;;6.33;;
15287;SDS011;7745;48.708;9.026;2023-04-05T07:44:09;7.47;;;5.90;;
15287;SDS011;7745;48.708;9.026;2023-04-05T07:49:30;7.93;;;6.13;;
15287;SDS011;7745;48.708;9.026;2023-04-05T07:52:02;9.07;;;6.10;;
15287;SDS011;7745;48.708;9.026;2023-04-05T07:54:34;7.90;;;5.43;;
15287;SDS011;7745;48.708;9.026;2023-04-05T07:57:09;8.97;;;6.37;;
15287;SDS011;7745;48.708;9.026;2023-04-05T07:59:44;6.57;;;5.83;;
15287;SDS011;7745;48.708;9.026;2023-04-05T08:02:12;6.13;;;5.43;;
15287;SDS011;7745;48.708;9.026;2023-04-05T08:04:39;8.97;;;6.00;;
15287;SDS011;7745;48.708;9.026;2023-04-05T08:07:08;7.73;;;5.23;;
15287;SDS011;7745;48.708;9.026;2023-04-05T08:09:41;6.80;;;5.77;;
15287;SDS011;7745;48.708;9.026;2023-04-05T08:12:15;10.87;;;6.20;;
15287;SDS011;7745;48.708;9.026;2023-04-05T08:14:44;10.30;;;5.80;;
15287;SDS011;7745;48.708;9.026;2023-04-05T08:17:25;9.37;;;5.93;;
15287;SDS011;7745;48.708;9.026;2023-04-05T08:19:53;7.53;;;5.03;;
15287;SDS011;7745;48.708;9.026;2023-04-05T08:22:22;7.10;;;5.17;;
15287;SDS011;7745;48.708;9.026;2023-04-05T08:24:56;6.13;;;5.43;;
15287;SDS011;7745;48.708;9.026;2023-04-05T08:27:30;6.07;;;5.13;;
15287;SDS011;7745;48.708;9.026;2023-04-05T08:30:01;6.40;;;5.03;;
15287;SDS011;7745;48.708;9.026;2023-04-05T08:32:34;7.87;;;5.80;;
15287;SDS011;7745;48.708;9.026;2023-04-05T08:35:02;7.33;;;5.37;;
15287;SDS011;7745;48.708;9.026;2023-04-05T08:37:37;6.87;;;5.43;;
15287;SDS011;7745;48.708;9.026;2023-04-05T08:40:39;7.93;;;4.97;;
15287;SDS011;7745;48.708;9.026;2023-04-05T08:45:53;7.50;;;4.90;;
15287;SDS011;7745;48.708;9.026;2023-04-05T08:48:23;9.67;;;5.47;;
15287;SDS011;7745;48.708;9.026;2023-04-05T08:50:53;7.60;;;5.20;;
15287;SDS011;7745;48.708;9.026;2023-04-05T08:53:20;5.60;;;4.60;;
15287;SDS011;7745;48.708;9.026;2023-04-05T08:55:48;6.80;;;5.07;;
15287;SDS011;7745;48.708;9.026;2023-04-05T08:58:16;7.17;;;5.53;;
15287;SDS011;7745;48.708;9.026;2023-04-05T09:00:47;6.00;;;4.77;;
15287;SDS011;7745;48.708;9.026;2023-04-05T09:03:16;6.73;;;4.30;;
15287;SDS011;7745;48.708;9.026;2023-04-05T09:05:48;6.53;;;4.77;;
15287;SDS011;7745;48.708;9.026;2023-04-05T09:08:16;7.63;;;4.70;;
15287;SDS011;7745;48.708;9.026;2023-04-05T09:10:45;6.00;;;4.43;;
15287;SDS011;7745;48.708;9.026;2023-04-05T09:13:14;5.60;;;3.90;;
15287;SDS011;7745;48.708;9.026;2023-04-05T09:15:44;5.47;;;4.97;;
15287;SDS011;7745;48.708;9.026;2023-04-05T09:18:14;6.23;;;5.00;;
15287;SDS011;7745;48.708;9.026;2023-04-05T09:20:44;5.63;;;5.10;;
15287;SDS011;7745;48.708;9.026;2023-04-05T09:23:11;6.97;;;5.37;;
15287;SDS011;7745;48.708;9.026;2023-04-05T09:25:38;5.43;;;4.80;;
15287;SDS011;7745;48.708;9.026;2023-04-05T09:28:07;6.03;;;4.83;;
15287;SDS011;7745;48.708;9.026;2023-04-05T09:30:35;7.80;;;5.53;;
15287;SDS011;7745;48.708;9.026;2023-04-05T09:33:06;7.67;;;5.47;;
15287;SDS011;7745;48.708;9.026;2023-04-05T09:35:36;10.03;;;5.03;;
15287;SDS011;7745;48.708;9.026;2023-04-05T09:38:03;5.47;;;4.97;;
15287;SDS011;7745;48.708;9.026;2023-04-05T09:40:40;5.33;;;4.83;;
15287;SDS011;7745;48.708;9.026;2023-04-05T09:43:08;7.57;;;5.33;;
15287;SDS011;7745;48.708;9.026;2023-04-05T09:45:37;7.63;;;5.57;;
15287;SDS011;7745;48.708;9.026;2023-04-05T09:48:05;9.07;;;5.67;;
15287;SDS011;7745;48.708;9.026;2023-04-05T09:50:33;8.47;;;4.90;;
15287;SDS011;7745;48.708;9.026;2023-04-05T09:53:08;5.93;;;5.00;;
15287;SDS011;7745;48.708;9.026;2023-04-05T09:55:40;8.23;;;5.30;;
15287;SDS011;7745;48.708;9.026;2023-04-05T09:58:10;6.60;;;4.90;;
15287;SDS011;7745;48.708;9.026;2023-04-05T10:00:37;6.33;;;5.57;;
15287;SDS011;7745;48.708;9.026;2023-04-05T10:03:17;7.47;;;5.60;;
15287;SDS011;7745;48.708;9.026;2023-04-05T10:05:43;7.10;;;6.07;;
15287;SDS011;7745;48.708;9.026;2023-04-05T10:08:13;6.10;;;5.50;;
15287;SDS011;7745;48.708;9.026;2023-04-05T10:10:44;5.80;;;5.03;;
15287;SDS011;7745;48.708;9.026;2023-04-05T10:13:12;7.10;;;5.03;;
15287;SDS011;7745;48.708;9.026;2023-04-05T10:15:41;5.77;;;5.23;;
15287;SDS011;7745;48.708;9.026;2023-04-05T10:18:12;10.07;;;5.10;;
15287;SDS011;7745;48.708;9.026;2023-04-05T10:20:43;8.40;;;5.60;;
15287;SDS011;7745;48.708;9.026;2023-04-05T10:23:16;5.67;;;5.10;;
15287;SDS011;7745;48.708;9.026;2023-04-05T10:25:51;9.33;;;5.77;;
15287;SDS011;7745;48.708;9.026;2023-04-05T10:28:25;5.00;;;4.50;;
15287;SDS011;7745;48.708;9.026;2023-04-05T10:30:58;6.57;;;5.30;;
15287;SDS011;7745;48.708;9.026;2023-04-05T10:33:34;6.27;;;4.90;;
15287;SDS011;7745;48.708;9.026;2023-04-05T10:36:06;5.03;;;4.53;;
15287;SDS011;7745;48.708;9.026;2023-04-05T10:38:44;7.90;;;5.43;;
15287;SDS011;7745;48.708;9.026;2023-04-05T10:41:21;6.37;;;5.00;;
15287;SDS011;7745;48.708;9.026;2023-04-05T10:43:48;6.27;;;4.87;;
15287;SDS011;7745;48.708;9.026;2023-04-05T10:46:17;5.73;;;4.37;;
15287;SDS011;7745;48.708;9.026;2023-04-05T10:48:47;8.33;;;4.93;;
15287;SDS011;7745;48.708;9.026;2023-04-05T10:51:20;5.50;;;4.70;;
15287;SDS011;7745;48.708;9.026;2023-04-05T10:53:51;7.30;;;4.93;;
15287;SDS011;7745;48.708;9.026;2023-04-05T10:56:19;6.80;;;5.20;;
15287;SDS011;7745;48.708;9.026;2023-04-05T10:58:47;6.43;;;4.67;;
15287;SDS011;7745;48.708;9.026;2023-04-05T11:01:15;5.27;;;4.40;;
15287;SDS011;7745;48.708;9.026;2023-04-05T11:03:47;6.00;;;4.37;;
15287;SDS011;7745;48.708;9.026;2023-04-05T11:06:22;6.27;;;4.60;;
15287;SDS011;7745;48.708;9.026;2023-04-05T11:08:52;6.20;;;4.77;;
15287;SDS011;7745;48.708;9.026;2023-04-05T11:11:21;4.90;;;4.00;;
15287;SDS011;7745;48.708;9.026;2023-04-05T11:13:49;8.13;;;4.83;;
15287;SDS011;7745;48.708;9.026;2023-04-05T11:16:17;5.27;;;4.77;;
15287;SDS011;7745;48.708;9.026;2023-04-05T11:18:44;6.00;;;4.80;;
15287;SDS011;7745;48.708;9.026;2023-04-05T11:21:18;7.73;;;4.80;;
15287;SDS011;7745;48.708;9.026;2023-04-05T11:24:05;6.97;;;4.83;;
15287;SDS011;7745;48.708;9.026;2023-04-05T11:26:32;6.30;;;5.40;;
15287;SDS011;7745;48.708;9.026;2023-04-05T11:29:18;6.00;;;4.80;;
15287;SDS011;7745;48.708;9.026;2023-04-05T11:32:05;6.83;;;5.10;;
15287;SDS011;7745;48.708;9.026;2023-04-05T11:34:37;9.53;;;5.00;;
15287;SDS011;7745;48.708;9.026;2023-04-05T11:37:07;5.80;;;4.90;;
15287;SDS011;7745;48.708;9.026;2023-04-05T11:39:35;6.43;;;5.47;;
15287;SDS011;7745;48.708;9.026;2023-04-05T11:45:17;5.77;;;5.27;;
15287;SDS011;7745;48.708;9.026;2023-04-05T11:47:52;7.73;;;5.20;;
15287;SDS011;7745;48.708;9.026;2023-04-05T11:50:24;6.10;;;4.90;;
15287;SDS011;7745;48.708;9.026;2023-04-05T11:53:07;7.60;;;5.17;;
15287;SDS011;7745;48.708;9.026;2023-04-05T11:55:36;4.97;;;4.47;;
15287;SDS011;7745;48.708;9.026;2023-04-05T11:58:10;5.70;;;5.20;;
15287;SDS011;7745;48.708;9.026;2023-04-05T12:00:37;5.13;;;4.63;;
15287;SDS011;7745;48.708;9.026;2023-04-05T12:03:04;7.47;;;4.90;;
15287;SDS011;7745;48.708;9.026;2023-04-05T12:05:43;6.57;;;4.70;;
15287;SDS011;7745;48.708;9.026;2023-04-05T12:08:14;6.27;;;4.77;;
15287;SDS011;7745;48.708;9.026;2023-04-05T12:10:42;5.70;;;5.10;;
15287;SDS011;7745;48.708;9.026;2023-04-05T12:13:09;5.23;;;4.73;;
15287;SDS011;7745;48.708;9.026;2023-04-05T12:15:36;9.20;;;5.93;;
15287;SDS011;7745;48.708;9.026;2023-04-05T12:18:04;6.33;;;5.30;;
15287;SDS011;7745;48.708;9.026;2023-04-05T12:20:38;6.87;;;5.07;;
15287;SDS011;7745;48.708;9.026;2023-04-05T12:23:05;8.07;;;5.57;;
15287;SDS011;7745;48.708;9.026;2023-04-05T12:25:32;6.77;;;5.20;;
15287;SDS011;7745;48.708;9.026;2023-04-05T12:28:04;8.13;;;5.27;;
15287;SDS011;7745;48.708;9.026;2023-04-05T12:30:33;6.33;;;5.53;;
15287;SDS011;7745;48.708;9.026;2023-04-05T12:33:06;5.40;;;4.90;;
15287;SDS011;7745;48.708;9.026;2023-04-05T12:35:34;5.17;;;4.67;;
15287;SDS011;7745;48.708;9.026;2023-04-05T12:38:01;7.17;;;4.87;;
15287;SDS011;7745;48.708;9.026;2023-04-05T12:40:29;7.33;;;5.00;;
15287;SDS011;7745;48.708;9.026;2023-04-05T12:43:00;8.93;;;5.57;;
15287;SDS011;7745;48.708;9.026;2023-04-05T12:45:29;7.53;;;5.40;;
15287;SDS011;7745;48.708;9.026;2023-04-05T12:48:03;5.80;;;5.20;;
15287;SDS011;7745;48.708;9.026;2023-04-05T12:50:33;8.87;;;5.40;;
15287;SDS011;7745;48.708;9.026;2023-04-05T12:53:03;5.90;;;5.30;;
15287;SDS011;7745;48.708;9.026;2023-04-05T12:55:31;7.30;;;5.30;;
15287;SDS011;7745;48.708;9.026;2023-04-05T12:58:03;5.67;;;4.90;;
15287;SDS011;7745;48.708;9.026;2023-04-05T13:00:31;6.33;;;5.07;;
15287;SDS011;7745;48.708;9.026;2023-04-05T13:02:58;5.33;;;4.83;;
15287;SDS011;7745;48.708;9.026;2023-04-05T13:05:26;7.87;;;5.10;;
15287;SDS011;7745;48.708;9.026;2023-04-05T13:07:54;6.53;;;5.50;;
15287;SDS011;7745;48.708;9.026;2023-04-05T13:10:21;6.30;;;5.17;;
15287;SDS011;7745;48.708;9.026;2023-04-05T13:12:49;7.17;;;5.43;;
15287;SDS011;7745;48.708;9.026;2023-04-05T13:15:16;7.83;;;5.80;;
15287;SDS011;7745;48.708;9.026;2023-04-05T13:17:45;8.90;;;5.40;;
15287;SDS011;7745;48.708;9.026;2023-04-05T13:20:14;5.97;;;4.80;;
15287;SDS011;7745;48.708;9.026;2023-04-05T13:22:41;6.70;;;5.10;;
15287;SDS011;7745;48.708;9.026;2023-04-05T13:25:08;10.17;;;6.30;;
15287;SDS011;7745;48.708;9.026;2023-04-05T13:27:35;6.50;;;5.83;;
15287;SDS011;7745;48.708;9.026;2023-04-05T13:30:02;10.13;;;6.17;;
15287;SDS011;7745;48.708;9.026;2023-04-05T13:32:29;7.33;;;5.73;;
15287;SDS011;7745;48.708;9.026;2023-04-05T13:34:57;6.17;;;5.57;;
15287;SDS011;7745;48.708;9.026;2023-04-05T13:37:24;7.77;;;5.60;;
15287;SDS011;7745;48.708;9.026;2023-04-05T13:39:51;6.80;;;5.80;;
15287;SDS011;7745;48.708;9.026;2023-04-05T13:42:18;6.90;;;5.70;;
15287;SDS011;7745;48.708;9.026;2023-04-05T13:44:44;5.63;;;5.10;;
15287;SDS011;7745;48.708;9.026;2023-04-05T13:47:11;6.17;;;5.53;;
15287;SDS011;7745;48.708;9.026;2023-04-05T13:49:38;7.43;;;5.97;;
15287;SDS011;7745;48.708;9.026;2023-04-05T13:52:07;6.67;;;5.77;;
15287;SDS011;7745;48.708;9.026;2023-04-05T13:54:34;5.87;;;5.13;;
15287;SDS011;7745;48.708;9.026;2023-04-05T13:57:01;10.53;;;6.07;;
15287;SDS011;7745;48.708;9.026;2023-04-05T13:59:27;9.43;;;6.10;;
15287;SDS011;7745;48.708;9.026;2023-04-05T14:01:54;7.97;;;5.97;;
15287;SDS011;7745;48.708;9.026;2023-04-05T14:04:21;7.83;;;5.73;;
15287;SDS011;7745;48.708;9.026;2023-04-05T14:06:48;8.30;;;6.23;;
15287;SDS011;7745;48.708;9.026;2023-04-05T14:09:16;7.23;;;6.07;;
15287;SDS011;7745;48.708;9.026;2023-04-05T14:11:42;6.73;;;6.10;;
15287;SDS011;7745;48.708;9.026;2023-04-05T14:14:09;6.80;;;6.07;;
15287;SDS011;7745;48.708;9.026;2023-04-05T14:16:36;6.90;;;5.80;;
15287;SDS011;7745;48.708;9.026;2023-04-05T14:19:03;7.57;;;6.23;;
15287;SDS011;7745;48.708;9.026;2023-04-05T14:21:30;8.90;;;6.73;;
15287;SDS011;7745;48.708;9.026;2023-04-05T14:23:57;7.20;;;6.40;;
15287;SDS011;7745;48.708;9.026;2023-04-05T14:26:25;8.80;;;5.80;;
15287;SDS011;7745;48.708;9.026;2023-04-05T14:28:53;9.47;;;5.90;;
15287;SDS011;7745;48.708;9.026;2023-04-05T14:31:20;9.30;;;5.93;;
15287;SDS011;7745;48.708;9.026;2023-04-05T14:33:49;6.27;;;5.77;;
15287;SDS011;7745;48.708;9.026;2023-04-05T14:36:16;8.27;;;5.80;;
15287;SDS011;7745;48.708;9.026;2023-04-05T14:38:42;6.70;;;5.77;;
15287;SDS011;7745;48.708;9.026;2023-04-05T14:41:09;6.77;;;6.03;;
15287;SDS011;7745;48.708;9.026;2023-04-05T14:43:38;7.57;;;5.73;;
15287;SDS011;7745;48.708;9.026;2023-04-05T14:46:05;8.87;;;6.20;;
15287;SDS011;7745;48.708;9.026;2023-04-05T14:48:32;7.83;;;5.80;;
15287;SDS011;7745;48.708;9.026;2023-04-05T14:50:59;7.67;;;6.27;;
15287;SDS011;7745;48.708;9.026;2023-04-05T14:53:26;6.53;;;5.57;;
15287;SDS011;7745;48.708;9.026;2023-04-05T14:55:53;7.70;;;5.87;;
15287;SDS011;7745;48.708;9.026;2023-04-05T14:58:20;6.97;;;6.27;;
15287;SDS011;7745;48.708;9.026;2023-04-05T15:00:48;9.40;;;5.83;;
15287;SDS011;7745;48.708;9.026;2023-04-05T15:03:16;9.73;;;6.03;;
15287;SDS011;7745;48.708;9.026;2023-04-05T15:05:44;8.03;;;6.43;;
15287;SDS011;7745;48.708;9.026;2023-04-05T15:08:11;7.30;;;6.20;;
15287;SDS011;7745;48.708;9.026;2023-04-05T15:10:38;8.83;;;6.30;;
15287;SDS011;7745;48.708;9.026;2023-04-05T15:13:06;7.40;;;6.20;;
15287;SDS011;7745;48.708;9.026;2023-04-05T15:15:34;7.57;;;6.03;;
15287;SDS011;7745;48.708;9.026;2023-04-05T15:18:03;7.43;;;5.87;;
15287;SDS011;7745;48.708;9.026;2023-04-05T15:20:31;7.07;;;5.70;;
15287;SDS011;7745;48.708;9.026;2023-04-05T15:22:59;7.20;;;5.60;;